sensor_id;sensor_type;location;lat;lon;timestamp;pressure;altitude;pressure_sealevel;temperature;humidity
7180;BME280;3631;42.152;24.756;2022-11-15T00:00:46;100099.88;;;8.05;100.00
7180;BME280;3631;42.152;24.756;2022-11-15T00:03:14;100094.03;;;7.83;100.00
7180;BME280;3631;42.152;24.756;2022-11-15T00:05:41;100104.34;;;7.85;100.00
7180;BME280;3631;42.152;24.756;2022-11-15T00:08:08;100106.94;;;7.86;100.00
7180;BME280;3631;42.152;24.756;2022-11-15T00:10:35;100095.75;;;7.83;100.00
7180;BME280;3631;42.152;24.756;2022-11-15T00:13:05;100104.38;;;7.80;100.00
7180;BME280;3631;42.152;24.756;2022-11-15T00:15:34;100109.56;;;7.80;100.00
7180;BME280;3631;42.152;24.756;2022-11-15T00:18:03;100089.88;;;7.65;100.00
7180;BME280;3631;42.152;24.756;2022-11-15T00:20:30;100102.72;;;7.76;100.00
7180;BME280;3631;42.152;24.756;2022-11-15T00:22:57;100102.72;;;7.76;100.00
7180;BME280;3631;42.152;24.756;2022-11-15T00:25:24;100099.31;;;7.68;100.00
7180;BME280;3631;42.152;24.756;2022-11-15T00:27:55;100100.22;;;7.65;100.00
7180;BME280;3631;42.152;24.756;2022-11-15T00:30:22;100103.66;;;7.64;100.00
7180;BME280;3631;42.152;24.756;2022-11-15T00:32:49;100072.75;;;7.52;100.00
7180;BME280;3631;42.152;24.756;2022-11-15T00:35:18;100104.47;;;7.71;100.00
7180;BME280;3631;42.152;24.756;2022-11-15T00:37:45;100102.72;;;7.76;100.00
7180;BME280;3631;42.152;24.756;2022-11-15T00:40:13;100099.25;;;7.77;100.00
7180;BME280;3631;42.152;24.756;2022-11-15T00:42:41;100104.38;;;7.80;100.00
7180;BME280;3631;42.152;24.756;2022-11-15T00:45:09;100092.31;;;7.79;100.00
7180;BME280;3631;42.152;24.756;2022-11-15T00:47:36;100094.91;;;7.82;100.00
7180;BME280;3631;42.152;24.756;2022-11-15T00:50:03;100097.47;;;7.85;100.00
7180;BME280;3631;42.152;24.756;2022-11-15T00:52:32;100087.09;;;7.88;100.00
7180;BME280;3631;42.152;24.756;2022-11-15T00:54:59;100088.00;;;7.84;100.00
7180;BME280;3631;42.152;24.756;2022-11-15T00:57:26;100085.47;;;7.78;100.00
7180;BME280;3631;42.152;24.756;2022-11-15T00:59:53;100082.84;;;7.83;100.00
7180;BME280;3631;42.152;24.756;2022-11-15T01:02:19;100087.13;;;7.84;100.00
7180;BME280;3631;42.152;24.756;2022-11-15T01:04:46;100079.47;;;7.72;100.00
7180;BME280;3631;42.152;24.756;2022-11-15T01:07:13;100083.78;;;7.71;100.00
7180;BME280;3631;42.152;24.756;2022-11-15T01:09:42;100077.72;;;7.77;100.00
7180;BME280;3631;42.152;24.756;2022-11-15T01:12:08;100084.72;;;7.67;100.00
7180;BME280;3631;42.152;24.756;2022-11-15T01:14:35;100076.97;;;7.64;100.00
7180;BME280;3631;42.152;24.756;2022-11-15T01:17:02;100076.97;;;7.64;100.00
7180;BME280;3631;42.152;24.756;2022-11-15T01:19:29;100081.19;;;7.77;100.00
7180;BME280;3631;42.152;24.756;2022-11-15T01:21:56;100071.63;;;7.85;100.00
7180;BME280;3631;42.152;24.756;2022-11-15T01:24:23;100059.56;;;7.84;100.00
7180;BME280;3631;42.152;24.756;2022-11-15T01:26:51;100064.72;;;7.87;100.00
7180;BME280;3631;42.152;24.756;2022-11-15T01:29:18;100068.09;;;7.92;100.00
7180;BME280;3631;42.152;24.756;2022-11-15T01:31:45;100071.50;;;7.97;100.00
7180;BME280;3631;42.152;24.756;2022-11-15T01:34:12;100068.91;;;8.00;100.00
7180;BME280;3631;42.152;24.756;2022-11-15T01:36:40;100068.91;;;7.99;100.00
7180;BME280;3631;42.152;24.756;2022-11-15T01:39:08;100060.31;;;7.97;100.00
7180;BME280;3631;42.152;24.756;2022-11-15T01:41:34;100062.06;;;7.92;100.00
7180;BME280;3631;42.152;24.756;2022-11-15T01:44:36;100064.53;;;8.06;100.00
7180;BME280;3631;42.152;24.756;2022-11-15T01:47:07;100055.91;;;8.07;100.00
7180;BME280;3631;42.152;24.756;2022-11-15T01:49:39;100052.44;;;8.11;100.00
7180;BME280;3631;42.152;24.756;2022-11-15T01:52:09;100054.16;;;8.10;100.00
7180;BME280;3631;42.152;24.756;2022-11-15T01:54:37;100058.47;;;8.08;100.00
7180;BME280;3631;42.152;24.756;2022-11-15T01:57:06;100059.34;;;8.06;100.00
7180;BME280;3631;42.152;24.756;2022-11-15T01:59:36;100055.06;;;8.03;100.00
7180;BME280;3631;42.152;24.756;2022-11-15T02:02:04;100052.47;;;8.05;100.00
7180;BME280;3631;42.152;24.756;2022-11-15T02:04:32;100061.91;;;8.10;100.00
7180;BME280;3631;42.152;24.756;2022-11-15T02:07:01;100058.41;;;8.13;100.00
7180;BME280;3631;42.152;24.756;2022-11-15T02:09:30;100063.66;;;8.08;100.00
7180;BME280;3631;42.152;24.756;2022-11-15T02:11:57;100057.63;;;8.08;100.00
7180;BME280;3631;42.152;24.756;2022-11-15T02:14:26;100055.88;;;8.10;100.00
7180;BME280;3631;42.152;24.756;2022-11-15T02:17:01;100065.38;;;8.09;100.00
7180;BME280;3631;42.152;24.756;2022-11-15T02:19:45;100054.09;;;8.13;100.00
7180;BME280;3631;42.152;24.756;2022-11-15T02:22:30;100052.31;;;8.20;100.00
7180;BME280;3631;42.152;24.756;2022-11-15T02:25:09;100056.66;;;8.18;100.00
7180;BME280;3631;42.152;24.756;2022-11-15T02:28:04;100060.00;;;8.26;100.00
7180;BME280;3631;42.152;24.756;2022-11-15T02:30:41;100053.13;;;8.25;100.00
7180;BME280;3631;42.152;24.756;2022-11-15T02:33:18;100052.34;;;8.17;100.00
7180;BME280;3631;42.152;24.756;2022-11-15T02:35:55;100055.75;;;8.22;100.00
7180;BME280;3631;42.152;24.756;2022-11-15T02:38:29;100051.47;;;8.18;100.00
7180;BME280;3631;42.152;24.756;2022-11-15T02:41:02;100037.69;;;8.17;100.00
7180;BME280;3631;42.152;24.756;2022-11-15T02:43:33;100045.44;;;8.20;100.00
7180;BME280;3631;42.152;24.756;2022-11-15T02:46:24;100038.44;;;8.27;100.00
7180;BME280;3631;42.152;24.756;2022-11-15T02:49:14;100042.75;;;8.26;100.00
7180;BME280;3631;42.152;24.756;2022-11-15T02:51:43;100035.09;;;8.19;100.00
7180;BME280;3631;42.152;24.756;2022-11-15T02:54:12;100041.09;;;8.22;100.00
7180;BME280;3631;42.152;24.756;2022-11-15T02:56:40;100042.78;;;8.25;100.00
7180;BME280;3631;42.152;24.756;2022-11-15T02:59:20;100038.41;;;8.30;100.00
7180;BME280;3631;42.152;24.756;2022-11-15T03:02:01;100041.88;;;8.29;100.00
7180;BME280;3631;42.152;24.756;2022-11-15T03:04:38;100033.25;;;8.33;100.00
7180;BME280;3631;42.152;24.756;2022-11-15T03:07:14;100034.16;;;8.24;100.00
7180;BME280;3631;42.152;24.756;2022-11-15T03:09:48;100042.00;;;8.15;100.00
7180;BME280;3631;42.152;24.756;2022-11-15T03:12:24;100037.69;;;8.17;100.00
7180;BME280;3631;42.152;24.756;2022-11-15T03:14:57;100039.38;;;8.23;100.00
7180;BME280;3631;42.152;24.756;2022-11-15T03:17:28;100039.28;;;8.29;100.00
7180;BME280;3631;42.152;24.756;2022-11-15T03:19:58;100042.75;;;8.26;100.00
7180;BME280;3631;42.152;24.756;2022-11-15T03:22:27;100042.78;;;8.25;100.00
7180;BME280;3631;42.152;24.756;2022-11-15T03:24:57;100040.25;;;8.19;100.00
7180;BME280;3631;42.152;24.756;2022-11-15T03:27:28;100013.56;;;8.17;100.00
7180;BME280;3631;42.152;24.756;2022-11-15T03:30:00;100043.63;;;8.25;100.00
7180;BME280;3631;42.152;24.756;2022-11-15T03:32:32;100036.72;;;8.26;100.00
7180;BME280;3631;42.152;24.756;2022-11-15T03:35:02;100026.47;;;8.21;100.00
7180;BME280;3631;42.152;24.756;2022-11-15T03:37:33;100017.03;;;8.16;100.00
7180;BME280;3631;42.152;24.756;2022-11-15T03:40:03;100030.78;;;8.21;100.00
7180;BME280;3631;42.152;24.756;2022-11-15T03:42:33;100023.78;;;8.26;100.00
7180;BME280;3631;42.152;24.756;2022-11-15T03:45:05;100023.00;;;8.22;100.00
7180;BME280;3631;42.152;24.756;2022-11-15T03:47:38;100016.91;;;8.25;100.00
7180;BME280;3631;42.152;24.756;2022-11-15T03:50:09;100018.59;;;8.29;100.00
7180;BME280;3631;42.152;24.756;2022-11-15T03:52:37;100006.53;;;8.29;100.00
7180;BME280;3631;42.152;24.756;2022-11-15T03:55:07;100011.69;;;8.31;100.00
7180;BME280;3631;42.152;24.756;2022-11-15T03:57:34;100009.00;;;8.40;100.00
7180;BME280;3631;42.152;24.756;2022-11-15T04:00:02;100003.88;;;8.37;100.00
7180;BME280;3631;42.152;24.756;2022-11-15T04:02:29;100000.50;;;8.32;100.00
7180;BME280;3631;42.152;24.756;2022-11-15T04:04:57;99994.47;;;8.27;100.00
7180;BME280;3631;42.152;24.756;2022-11-15T04:07:24;100003.97;;;8.25;100.00
7180;BME280;3631;42.152;24.756;2022-11-15T04:09:51;99997.13;;;8.24;100.00
7180;BME280;3631;42.152;24.756;2022-11-15T04:12:31;99994.56;;;8.22;100.00
7180;BME280;3631;42.152;24.756;2022-11-15T04:15:03;99991.16;;;8.17;100.00
7180;BME280;3631;42.152;24.756;2022-11-15T04:17:38;99986.84;;;8.18;100.00
7180;BME280;3631;42.152;24.756;2022-11-15T04:20:09;99982.53;;;8.18;100.00
7180;BME280;3631;42.152;24.756;2022-11-15T04:22:55;99985.09;;;8.20;100.00
7180;BME280;3631;42.152;24.756;2022-11-15T04:25:39;99977.34;;;8.20;100.00
7180;BME280;3631;42.152;24.756;2022-11-15T04:28:06;99981.53;;;8.30;100.00
7180;BME280;3631;42.152;24.756;2022-11-15T04:30:33;99983.25;;;8.32;100.00
7180;BME280;3631;42.152;24.756;2022-11-15T04:33:00;99979.03;;;8.24;100.00
7180;BME280;3631;42.152;24.756;2022-11-15T04:35:29;99966.19;;;8.15;100.00
7180;BME280;3631;42.152;24.756;2022-11-15T04:37:56;99971.31;;;8.18;100.00
7180;BME280;3631;42.152;24.756;2022-11-15T04:40:22;99992.09;;;8.12;100.00
7180;BME280;3631;42.152;24.756;2022-11-15T04:42:49;99980.16;;;7.98;100.00
7180;BME280;3631;42.152;24.756;2022-11-15T04:45:16;99989.63;;;8.01;100.00
7180;BME280;3631;42.152;24.756;2022-11-15T04:47:44;99964.72;;;7.91;100.00
7180;BME280;3631;42.152;24.756;2022-11-15T04:50:12;99984.34;;;8.09;100.00
7180;BME280;3631;42.152;24.756;2022-11-15T04:52:42;99982.59;;;8.12;100.00
7180;BME280;3631;42.152;24.756;2022-11-15T04:55:09;99983.50;;;8.07;100.00
7180;BME280;3631;42.152;24.756;2022-11-15T04:57:37;99972.31;;;8.05;100.00
7180;BME280;3631;42.152;24.756;2022-11-15T05:00:06;99972.44;;;7.97;100.00
7180;BME280;3631;42.152;24.756;2022-11-15T05:02:33;99984.53;;;7.92;100.00
7180;BME280;3631;42.152;24.756;2022-11-15T05:05:14;99976.88;;;7.81;100.00
7180;BME280;3631;42.152;24.756;2022-11-15T05:07:42;99981.16;;;7.85;100.00
7180;BME280;3631;42.152;24.756;2022-11-15T05:10:09;99978.47;;;7.94;100.00
7180;BME280;3631;42.152;24.756;2022-11-15T05:12:36;99976.66;;;8.04;100.00
7180;BME280;3631;42.152;24.756;2022-11-15T05:15:04;99975.75;;;8.08;100.00
7180;BME280;3631;42.152;24.756;2022-11-15T05:17:31;99974.06;;;8.02;100.00
7180;BME280;3631;42.152;24.756;2022-11-15T05:19:58;99988.59;;;8.13;100.00
7180;BME280;3631;42.152;24.756;2022-11-15T05:22:24;99986.94;;;8.10;100.00
7180;BME280;3631;42.152;24.756;2022-11-15T05:24:53;99974.88;;;8.08;100.00
7180;BME280;3631;42.152;24.756;2022-11-15T05:27:20;99978.16;;;8.23;100.00
7180;BME280;3631;42.152;24.756;2022-11-15T05:29:47;99976.59;;;8.09;100.00
7180;BME280;3631;42.152;24.756;2022-11-15T05:32:13;99976.47;;;8.21;100.00
7180;BME280;3631;42.152;24.756;2022-11-15T05:34:40;99982.41;;;8.27;100.00
7180;BME280;3631;42.152;24.756;2022-11-15T05:37:07;99972.16;;;8.20;100.00
7180;BME280;3631;42.152;24.756;2022-11-15T05:39:34;99984.06;;;8.36;100.00
7180;BME280;3631;42.152;24.756;2022-11-15T05:42:06;99985.72;;;8.42;100.00
7180;BME280;3631;42.152;24.756;2022-11-15T05:44:36;99989.09;;;8.47;100.00
7180;BME280;3631;42.152;24.756;2022-11-15T05:47:05;99982.88;;;8.60;100.00
7180;BME280;3631;42.152;24.756;2022-11-15T05:49:36;99986.31;;;8.62;100.00
7180;BME280;3631;42.152;24.756;2022-11-15T05:52:06;99991.44;;;8.66;100.00
7180;BME280;3631;42.152;24.756;2022-11-15T05:54:35;99995.56;;;8.80;100.00
7180;BME280;3631;42.152;24.756;2022-11-15T05:57:05;99997.22;;;8.84;100.00
7180;BME280;3631;42.152;24.756;2022-11-15T05:59:33;99998.91;;;8.86;100.00
7180;BME280;3631;42.152;24.756;2022-11-15T06:02:01;99999.03;;;8.80;100.00
7180;BME280;3631;42.152;24.756;2022-11-15T06:04:28;100004.97;;;8.87;100.00
7180;BME280;3631;42.152;24.756;2022-11-15T06:06:55;100011.75;;;8.92;100.00
7180;BME280;3631;42.152;24.756;2022-11-15T06:09:22;100010.88;;;8.93;100.00
7180;BME280;3631;42.152;24.756;2022-11-15T06:11:48;100010.72;;;9.05;100.00
7180;BME280;3631;42.152;24.756;2022-11-15T06:14:17;100005.63;;;9.01;100.00
7180;BME280;3631;42.152;24.756;2022-11-15T06:16:44;100005.47;;;9.10;100.00
7180;BME280;3631;42.152;24.756;2022-11-15T06:19:11;100008.25;;;8.98;100.00
7180;BME280;3631;42.152;24.756;2022-11-15T06:21:38;100009.81;;;9.08;100.00
7180;BME280;3631;42.152;24.756;2022-11-15T06:24:05;100007.25;;;9.06;100.00
7180;BME280;3631;42.152;24.756;2022-11-15T06:26:32;100010.63;;;9.13;100.00
7180;BME280;3631;42.152;24.756;2022-11-15T06:28:59;100007.91;;;9.19;100.00
7180;BME280;3631;42.152;24.756;2022-11-15T06:31:28;100012.41;;;9.08;100.00
7180;BME280;3631;42.152;24.756;2022-11-15T06:33:55;100011.25;;;9.27;100.00
7180;BME280;3631;42.152;24.756;2022-11-15T06:36:22;100011.16;;;9.33;100.00
7180;BME280;3631;42.152;24.756;2022-11-15T06:38:48;99999.00;;;9.37;100.00
7180;BME280;3631;42.152;24.756;2022-11-15T06:41:16;100000.69;;;9.39;100.00
7180;BME280;3631;42.152;24.756;2022-11-15T06:43:43;100013.28;;;9.61;100.00
7180;BME280;3631;42.152;24.756;2022-11-15T06:46:10;100010.44;;;9.76;100.00
7180;BME280;3631;42.152;24.756;2022-11-15T06:48:38;100022.13;;;9.98;100.00
7180;BME280;3631;42.152;24.756;2022-11-15T06:51:05;100022.09;;;10.01;100.00
7180;BME280;3631;42.152;24.756;2022-11-15T06:53:33;100010.19;;;9.91;100.00
7180;BME280;3631;42.152;24.756;2022-11-15T06:56:01;100014.19;;;10.06;100.00
7180;BME280;3631;42.152;24.756;2022-11-15T06:58:28;100012.25;;;10.17;100.00
7180;BME280;3631;42.152;24.756;2022-11-15T07:00:58;100007.09;;;10.18;100.00
7180;BME280;3631;42.152;24.756;2022-11-15T07:03:25;100017.44;;;10.20;100.00
7180;BME280;3631;42.152;24.756;2022-11-15T07:05:55;100006.81;;;10.32;100.00
7180;BME280;3631;42.152;24.756;2022-11-15T07:08:23;100008.38;;;10.39;100.00
7180;BME280;3631;42.152;24.756;2022-11-15T07:10:50;100009.78;;;10.57;100.00
7180;BME280;3631;42.152;24.756;2022-11-15T07:13:17;99997.44;;;10.67;100.00
7180;BME280;3631;42.152;24.756;2022-11-15T07:15:44;100002.88;;;10.56;100.00
7180;BME280;3631;42.152;24.756;2022-11-15T07:18:11;100003.72;;;10.57;100.00
7180;BME280;3631;42.152;24.756;2022-11-15T07:20:38;100000.56;;;10.82;100.00
7180;BME280;3631;42.152;24.756;2022-11-15T07:23:07;100004.53;;;10.99;100.00
7180;BME280;3631;42.152;24.756;2022-11-15T07:25:34;100000.75;;;11.12;100.00
7180;BME280;3631;42.152;24.756;2022-11-15T07:28:01;100004.94;;;11.17;100.00
7180;BME280;3631;42.152;24.756;2022-11-15T07:30:29;99982.06;;;11.33;100.00
7180;BME280;3631;42.152;24.756;2022-11-15T07:32:56;100001.19;;;11.64;100.00
7180;BME280;3631;42.152;24.756;2022-11-15T07:35:24;100001.66;;;11.82;99.79
7180;BME280;3631;42.152;24.756;2022-11-15T07:37:56;99999.50;;;11.97;98.00
7180;BME280;3631;42.152;24.756;2022-11-15T07:40:24;100000.28;;;12.01;96.82
7180;BME280;3631;42.152;24.756;2022-11-15T07:42:51;100002.47;;;11.84;96.63
7180;BME280;3631;42.152;24.756;2022-11-15T07:45:23;99996.84;;;11.65;97.30
7180;BME280;3631;42.152;24.756;2022-11-15T07:47:52;99994.97;;;11.72;97.04
7180;BME280;3631;42.152;24.756;2022-11-15T07:50:19;99999.19;;;11.76;97.16
7180;BME280;3631;42.152;24.756;2022-11-15T07:52:46;99992.75;;;11.90;96.87
7180;BME280;3631;42.152;24.756;2022-11-15T07:55:13;99996.22;;;11.91;96.67
7180;BME280;3631;42.152;24.756;2022-11-15T07:57:42;99992.31;;;12.07;96.08
7180;BME280;3631;42.152;24.756;2022-11-15T08:00:10;99997.22;;;12.18;95.27
7180;BME280;3631;42.152;24.756;2022-11-15T08:02:37;99989.66;;;12.09;95.63
7180;BME280;3631;42.152;24.756;2022-11-15T08:05:05;99999.38;;;12.02;96.17
7180;BME280;3631;42.152;24.756;2022-11-15T08:07:32;99997.03;;;11.93;95.99
7180;BME280;3631;42.152;24.756;2022-11-15T08:09:59;99990.19;;;11.89;96.42
7180;BME280;3631;42.152;24.756;2022-11-15T08:12:27;99970.56;;;11.77;96.71
7180;BME280;3631;42.152;24.756;2022-11-15T08:14:55;99977.38;;;11.83;97.16
7180;BME280;3631;42.152;24.756;2022-11-15T08:17:22;99976.63;;;11.78;96.89
7180;BME280;3631;42.152;24.756;2022-11-15T08:19:50;99976.63;;;11.78;97.46
7180;BME280;3631;42.152;24.756;2022-11-15T08:22:21;99960.88;;;11.84;97.06
7180;BME280;3631;42.152;24.756;2022-11-15T08:24:54;99976.00;;;12.00;97.22
7180;BME280;3631;42.152;24.756;2022-11-15T08:27:21;99975.16;;;12.00;97.11
7180;BME280;3631;42.152;24.756;2022-11-15T08:29:54;99973.63;;;11.93;98.63
7180;BME280;3631;42.152;24.756;2022-11-15T08:32:26;99977.94;;;11.94;98.94
7180;BME280;3631;42.152;24.756;2022-11-15T08:34:53;99968.94;;;12.06;98.83
7180;BME280;3631;42.152;24.756;2022-11-15T08:37:20;99972.31;;;12.08;98.01
7180;BME280;3631;42.152;24.756;2022-11-15T08:39:46;99967.81;;;12.14;98.02
7180;BME280;3631;42.152;24.756;2022-11-15T08:42:13;99973.66;;;12.22;97.96
7180;BME280;3631;42.152;24.756;2022-11-15T08:44:41;99968.53;;;12.19;98.40
7180;BME280;3631;42.152;24.756;2022-11-15T08:47:12;99965.59;;;12.00;98.81
7180;BME280;3631;42.152;24.756;2022-11-15T08:49:40;99957.00;;;11.97;100.00
7180;BME280;3631;42.152;24.756;2022-11-15T08:52:07;99952.78;;;11.94;100.00
7180;BME280;3631;42.152;24.756;2022-11-15T08:54:36;99965.16;;;12.17;100.00
7180;BME280;3631;42.152;24.756;2022-11-15T08:57:03;99949.59;;;12.14;100.00
7180;BME280;3631;42.152;24.756;2022-11-15T08:59:30;99941.69;;;12.19;100.00
7180;BME280;3631;42.152;24.756;2022-11-15T09:01:57;99939.66;;;12.28;100.00
7180;BME280;3631;42.152;24.756;2022-11-15T09:04:26;99934.88;;;12.43;100.00
7180;BME280;3631;42.152;24.756;2022-11-15T09:06:56;99930.72;;;12.37;100.00
7180;BME280;3631;42.152;24.756;2022-11-15T09:09:23;99933.00;;;12.48;100.00
7180;BME280;3631;42.152;24.756;2022-11-15T09:11:50;99925.84;;;12.54;100.00
7180;BME280;3631;42.152;24.756;2022-11-15T09:14:19;99923.28;;;12.53;100.00
7180;BME280;3631;42.152;24.756;2022-11-15T09:16:49;99916.41;;;12.52;100.00
7180;BME280;3631;42.152;24.756;2022-11-15T09:19:20;99913.97;;;12.46;100.00
7180;BME280;3631;42.152;24.756;2022-11-15T09:21:50;99904.16;;;12.54;100.00
7180;BME280;3631;42.152;24.756;2022-11-15T09:24:18;99897.00;;;12.62;100.00
7180;BME280;3631;42.152;24.756;2022-11-15T09:26:45;99895.91;;;12.69;100.00
7180;BME280;3631;42.152;24.756;2022-11-15T09:29:17;99892.59;;;12.64;100.00
7180;BME280;3631;42.152;24.756;2022-11-15T09:31:47;99894.88;;;12.75;100.00
7180;BME280;3631;42.152;24.756;2022-11-15T09:34:14;99883.34;;;12.82;100.00
7180;BME280;3631;42.152;24.756;2022-11-15T09:36:42;99884.03;;;12.87;100.00
7180;BME280;3631;42.152;24.756;2022-11-15T09:39:10;99880.44;;;12.91;100.00
7180;BME280;3631;42.152;24.756;2022-11-15T09:42:03;99878.28;;;13.03;100.00
7180;BME280;3631;42.152;24.756;2022-11-15T09:44:49;99874.81;;;13.03;100.00
7180;BME280;3631;42.152;24.756;2022-11-15T09:47:47;99869.22;;;12.89;100.00
7180;BME280;3631;42.152;24.756;2022-11-15T09:50:32;99864.03;;;12.87;100.00
7180;BME280;3631;42.152;24.756;2022-11-15T09:53:00;99865.78;;;12.87;100.00
7180;BME280;3631;42.152;24.756;2022-11-15T09:55:34;99859.00;;;12.83;100.00
7180;BME280;3631;42.152;24.756;2022-11-15T09:58:14;99866.75;;;12.84;100.00
7180;BME280;3631;42.152;24.756;2022-11-15T10:00:46;99858.22;;;12.79;100.00
7180;BME280;3631;42.152;24.756;2022-11-15T10:03:23;99848.63;;;12.81;100.00
7180;BME280;3631;42.152;24.756;2022-11-15T10:05:55;99841.63;;;12.83;100.00
7180;BME280;3631;42.152;24.756;2022-11-15T10:08:46;99835.28;;;12.90;100.00
7180;BME280;3631;42.152;24.756;2022-11-15T10:11:19;99838.56;;;12.97;100.00
7180;BME280;3631;42.152;24.756;2022-11-15T10:13:50;99834.88;;;13.02;100.00
7180;BME280;3631;42.152;24.756;2022-11-15T10:16:34;99830.38;;;13.07;100.00
7180;BME280;3631;42.152;24.756;2022-11-15T10:19:12;99828.28;;;13.19;100.00
7180;BME280;3631;42.152;24.756;2022-11-15T10:21:55;99817.34;;;13.07;100.00
7180;BME280;3631;42.152;24.756;2022-11-15T10:24:28;99816.25;;;13.15;100.00
7180;BME280;3631;42.152;24.756;2022-11-15T10:26:57;99821.25;;;13.21;100.00
7180;BME280;3631;42.152;24.756;2022-11-15T10:29:26;99827.16;;;13.26;100.00
7180;BME280;3631;42.152;24.756;2022-11-15T10:31:53;99824.50;;;13.27;100.00
7180;BME280;3631;42.152;24.756;2022-11-15T10:34:21;99808.81;;;13.29;100.00
7180;BME280;3631;42.152;24.756;2022-11-15T10:36:54;99804.78;;;13.43;100.00
7180;BME280;3631;42.152;24.756;2022-11-15T10:39:22;99805.34;;;13.53;99.78
7180;BME280;3631;42.152;24.756;2022-11-15T10:41:49;99783.03;;;13.44;99.61
7180;BME280;3631;42.152;24.756;2022-11-15T10:44:24;99799.53;;;13.68;98.63
7180;BME280;3631;42.152;24.756;2022-11-15T10:49:54;99786.34;;;13.50;98.21
7180;BME280;3631;42.152;24.756;2022-11-15T10:52:22;99783.69;;;13.51;97.67
7180;BME280;3631;42.152;24.756;2022-11-15T10:54:53;99775.41;;;13.40;98.27
7180;BME280;3631;42.152;24.756;2022-11-15T10:57:23;99776.75;;;13.50;97.94
7180;BME280;3631;42.152;24.756;2022-11-15T10:59:54;99766.94;;;13.57;97.51
7180;BME280;3631;42.152;24.756;2022-11-15T11:02:35;99770.06;;;13.66;97.41
7180;BME280;3631;42.152;24.756;2022-11-15T11:05:04;99771.34;;;13.78;96.86
7180;BME280;3631;42.152;24.756;2022-11-15T11:07:34;99751.78;;;13.66;96.37
7180;BME280;3631;42.152;24.756;2022-11-15T11:10:05;99760.56;;;13.65;96.29
7180;BME280;3631;42.152;24.756;2022-11-15T11:12:43;99755.44;;;13.62;96.35
7180;BME280;3631;42.152;24.756;2022-11-15T11:15:12;99742.50;;;13.59;96.69
7180;BME280;3631;42.152;24.756;2022-11-15T11:17:56;99758.84;;;13.64;96.57
7180;BME280;3631;42.152;24.756;2022-11-15T11:20:30;99747.38;;;13.68;96.21
7180;BME280;3631;42.152;24.756;2022-11-15T11:23:16;99740.75;;;13.60;95.88
7180;BME280;3631;42.152;24.756;2022-11-15T11:25:54;99732.06;;;13.59;95.91
7180;BME280;3631;42.152;24.756;2022-11-15T11:28:36;99724.34;;;13.56;96.26
7180;BME280;3631;42.152;24.756;2022-11-15T11:31:14;99724.25;;;13.59;96.77
7180;BME280;3631;42.152;24.756;2022-11-15T11:33:51;99703.44;;;13.58;96.77
7180;BME280;3631;42.152;24.756;2022-11-15T11:36:26;99710.56;;;13.54;97.56
7180;BME280;3631;42.152;24.756;2022-11-15T11:39:02;99706.38;;;13.72;96.24
7180;BME280;3631;42.152;24.756;2022-11-15T11:41:45;99702.38;;;13.63;95.95
7180;BME280;3631;42.152;24.756;2022-11-15T11:44:24;99699.31;;;13.75;95.11
7180;BME280;3631;42.152;24.756;2022-11-15T11:46:56;99704.00;;;13.66;95.78
7180;BME280;3631;42.152;24.756;2022-11-15T11:49:32;99703.84;;;13.47;96.91
7180;BME280;3631;42.152;24.756;2022-11-15T11:52:07;99696.94;;;13.46;97.18
7180;BME280;3631;42.152;24.756;2022-11-15T11:54:42;99690.91;;;13.44;96.94
7180;BME280;3631;42.152;24.756;2022-11-15T11:57:17;99690.16;;;13.42;96.72
7180;BME280;3631;42.152;24.756;2022-11-15T11:59:52;99689.91;;;13.48;96.69
7180;BME280;3631;42.152;24.756;2022-11-15T12:02:27;99678.47;;;13.52;96.34
7180;BME280;3631;42.152;24.756;2022-11-15T12:05:03;99675.84;;;13.52;96.40
7180;BME280;3631;42.152;24.756;2022-11-15T12:07:32;99671.34;;;13.56;97.08
7180;BME280;3631;42.152;24.756;2022-11-15T12:10:04;99672.19;;;13.56;97.39
7180;BME280;3631;42.152;24.756;2022-11-15T12:12:47;99666.50;;;13.68;96.79
7180;BME280;3631;42.152;24.756;2022-11-15T12:15:18;99659.75;;;13.64;97.01
7180;BME280;3631;42.152;24.756;2022-11-15T12:17:48;99662.16;;;13.69;96.83
7180;BME280;3631;42.152;24.756;2022-11-15T12:20:18;99665.66;;;13.68;97.28
7180;BME280;3631;42.152;24.756;2022-11-15T12:22:51;99658.25;;;13.79;96.98
7180;BME280;3631;42.152;24.756;2022-11-15T12:25:22;99652.25;;;13.77;96.31
7180;BME280;3631;42.152;24.756;2022-11-15T12:27:56;99646.97;;;13.78;96.13
7180;BME280;3631;42.152;24.756;2022-11-15T12:30:25;99644.44;;;13.77;96.53
7180;BME280;3631;42.152;24.756;2022-11-15T12:32:56;99637.38;;;13.79;96.19
7180;BME280;3631;42.152;24.756;2022-11-15T12:35:30;99641.97;;;13.74;96.28
7180;BME280;3631;42.152;24.756;2022-11-15T12:37:58;99637.53;;;13.76;96.20
7180;BME280;3631;42.152;24.756;2022-11-15T12:40:33;99619.72;;;13.65;96.16
7180;BME280;3631;42.152;24.756;2022-11-15T12:45:45;99636.59;;;13.55;96.90
7180;BME280;3631;42.152;24.756;2022-11-15T12:51:14;99629.63;;;13.56;96.55
7180;BME280;3631;42.152;24.756;2022-11-15T12:53:41;99624.06;;;13.65;96.64
7180;BME280;3631;42.152;24.756;2022-11-15T12:56:23;99623.34;;;13.61;96.46
7180;BME280;3631;42.152;24.756;2022-11-15T12:58:53;99603.81;;;13.50;97.17
7180;BME280;3631;42.152;24.756;2022-11-15T13:01:58;99614.19;;;13.51;97.56
7180;BME280;3631;42.152;24.756;2022-11-15T13:04:29;99607.25;;;13.50;97.42
7180;BME280;3631;42.152;24.756;2022-11-15T13:07:00;99591.13;;;13.40;97.55
7180;BME280;3631;42.152;24.756;2022-11-15T13:09:50;99598.75;;;13.45;97.46
7180;BME280;3631;42.152;24.756;2022-11-15T13:15:34;99585.06;;;13.40;98.07
7180;BME280;3631;42.152;24.756;2022-11-15T13:18:30;99598.81;;;13.43;98.78
7180;BME280;3631;42.152;24.756;2022-11-15T13:20:58;99587.91;;;13.34;98.83
7180;BME280;3631;42.152;24.756;2022-11-15T13:23:26;99591.19;;;13.39;98.79
7180;BME280;3631;42.152;24.756;2022-11-15T13:26:02;99584.00;;;13.44;98.75
7180;BME280;3631;42.152;24.756;2022-11-15T13:28:33;99583.69;;;13.53;98.49
7180;BME280;3631;42.152;24.756;2022-11-15T13:31:02;99576.88;;;13.49;99.05
7180;BME280;3631;42.152;24.756;2022-11-15T13:33:32;99565.47;;;13.30;99.69
7180;BME280;3631;42.152;24.756;2022-11-15T13:36:02;99572.09;;;13.38;99.77